createdAt,value
2018-09-13T00:00:46.672Z,0
2018-09-13T00:01:47.371Z,0
2018-09-13T00:02:47.531Z,0
2018-09-13T00:03:48.226Z,0
2018-09-13T00:04:48.920Z,0
2018-09-13T00:05:50.145Z,0
2018-09-13T00:06:49.898Z,0
2018-09-13T00:07:50.162Z,0
2018-09-13T00:08:50.595Z,0
2018-09-13T00:09:50.999Z,0
2018-09-13T00:10:51.412Z,0
2018-09-13T00:11:51.549Z,0
2018-09-13T00:12:51.690Z,0
2018-09-13T00:13:52.382Z,0
2018-09-13T00:14:52.798Z,0
2018-09-13T00:15:53.218Z,0
2018-09-13T00:16:53.354Z,0
2018-09-13T00:17:54.343Z,0
2018-09-13T00:18:54.758Z,0
2018-09-13T00:19:55.206Z,0
2018-09-13T00:20:55.899Z,0
2018-09-13T00:21:56.593Z,0
2018-09-13T00:22:57.295Z,0
2018-09-13T00:23:57.433Z,0
2018-09-13T00:24:57.582Z,0
2018-09-13T00:25:58.267Z,0
2018-09-13T00:26:59.244Z,0
2018-09-13T00:27:59.231Z,0
2018-09-13T00:28:59.373Z,0
2018-09-13T00:29:59.509Z,0
2018-09-13T00:30:59.649Z,0
2018-09-13T00:32:00.078Z,0
2018-09-13T00:33:00.490Z,0
2018-09-13T00:34:00.630Z,0
2018-09-13T00:35:01.044Z,0
2018-09-13T00:36:02.028Z,0
2018-09-13T00:37:02.166Z,0
2018-09-13T00:38:02.443Z,0
2018-09-13T00:39:02.864Z,0
2018-09-13T00:40:03.830Z,0
2018-09-13T00:41:04.246Z,0
2018-09-13T00:42:04.940Z,0
2018-09-13T00:43:05.081Z,0
2018-09-13T00:44:05.801Z,0
2018-09-13T00:45:06.496Z,0
2018-09-13T00:46:06.916Z,0
2018-09-13T00:47:07.891Z,0
2018-09-13T00:48:08.157Z,0
2018-09-13T00:49:08.576Z,0
2018-09-13T00:50:08.710Z,0
2018-09-13T00:51:23.723Z,0
2018-09-13T00:52:08.864Z,0
2018-09-13T00:53:09.277Z,0
2018-09-13T00:54:09.701Z,0
2018-09-13T00:55:10.672Z,0
2018-09-13T00:56:11.364Z,0
2018-09-13T00:57:11.782Z,0
2018-09-13T00:58:12.049Z,0
2018-09-13T00:59:12.186Z,0
2018-09-13T01:00:13.156Z,0
2018-09-13T01:01:13.294Z,0
2018-09-13T01:02:13.433Z,0
2018-09-13T01:03:14.129Z,0
2018-09-13T01:04:14.543Z,0
2018-09-13T01:05:14.684Z,0
2018-09-13T01:06:14.820Z,0
2018-09-13T01:07:15.236Z,0
2018-09-13T01:08:15.500Z,0
2018-09-13T01:09:16.195Z,0
2018-09-13T01:10:16.889Z,0
2018-09-13T01:11:17.024Z,0
2018-09-13T01:12:17.441Z,0
2018-09-13T01:13:17.581Z,0
2018-09-13T01:14:17.999Z,0
2018-09-13T01:15:18.413Z,0
2018-09-13T01:16:18.829Z,0
2018-09-13T01:17:19.527Z,0
2018-09-13T01:18:19.792Z,0
2018-09-13T01:19:20.209Z,0
2018-09-13T01:20:20.624Z,0
2018-09-13T01:21:21.043Z,0
2018-09-13T01:22:21.458Z,0
2018-09-13T01:23:21.871Z,0
2018-09-13T01:24:22.288Z,0
2018-09-13T01:25:22.704Z,0
2018-09-13T01:26:23.400Z,0
2018-09-13T01:27:23.818Z,0
2018-09-13T01:28:24.086Z,0
2018-09-13T01:29:24.502Z,0
2018-09-13T01:30:24.641Z,0
2018-09-13T01:31:24.778Z,0
2018-09-13T01:32:25.194Z,0
2018-09-13T01:33:25.611Z,0
2018-09-13T01:34:25.751Z,0
2018-09-13T01:35:26.164Z,0
2018-09-13T01:36:26.580Z,0
2018-09-13T01:37:26.999Z,0
2018-09-13T01:38:27.990Z,0
2018-09-13T01:39:28.130Z,0
2018-09-13T01:40:28.264Z,0
2018-09-13T01:41:28.957Z,0
2018-09-13T01:42:29.650Z,0
2018-09-13T01:43:30.065Z,0
2018-09-13T01:44:30.759Z,0
2018-09-13T01:45:30.897Z,0
2018-09-13T01:46:31.037Z,0
2018-09-13T01:47:31.451Z,0
2018-09-13T01:48:32.163Z,0
2018-09-13T01:49:32.300Z,0
2018-09-13T01:50:32.717Z,0
2018-09-13T01:51:33.136Z,0
2018-09-13T01:52:33.829Z,0
2018-09-13T01:53:34.527Z,0
2018-09-13T01:54:34.940Z,0
2018-09-13T01:55:35.351Z,0
2018-09-13T01:56:35.765Z,0
2018-09-13T01:57:36.458Z,0
2018-09-13T01:58:36.167Z,0
2018-09-13T01:59:36.304Z,0
2018-09-13T02:00:36.718Z,0
2018-09-13T02:01:37.138Z,0
2018-09-13T02:02:37.271Z,0
2018-09-13T02:03:37.407Z,0
2018-09-13T02:04:37.824Z,0
2018-09-13T02:05:38.239Z,0
2018-09-13T02:06:38.932Z,0
2018-09-13T02:07:39.625Z,0
2018-09-13T02:08:40.180Z,0
2018-09-13T02:09:40.594Z,0
2018-09-13T02:10:41.008Z,0
2018-09-13T02:11:41.702Z,0
2018-09-13T02:12:42.393Z,0
2018-09-13T02:13:42.532Z,0
2018-09-13T02:14:42.671Z,0
2018-09-13T02:15:43.362Z,0
2018-09-13T02:16:43.780Z,0
2018-09-13T02:17:44.197Z,0
2018-09-13T02:18:44.740Z,0
2018-09-13T02:19:45.158Z,0
2018-09-13T02:20:45.297Z,0
2018-09-13T02:21:45.713Z,0
2018-09-13T02:22:46.125Z,0
2018-09-13T02:23:46.542Z,0
2018-09-13T02:24:46.959Z,0
2018-09-13T02:25:47.375Z,0
2018-09-13T02:26:47.789Z,0
2018-09-13T02:27:47.931Z,0
2018-09-13T02:28:48.915Z,0
2018-09-13T02:29:49.054Z,0
2018-09-13T02:30:50.301Z,0
2018-09-13T02:31:50.439Z,0
2018-09-13T02:32:50.852Z,0
2018-09-13T02:33:51.557Z,0
2018-09-13T02:34:52.525Z,0
2018-09-13T02:35:53.220Z,0
2018-09-13T02:36:55.388Z,0
2018-09-13T02:39:55.560Z,0
2018-09-13T02:40:56.431Z,0
2018-09-13T02:41:56.568Z,0
2018-09-13T02:42:56.992Z,0
2018-09-13T02:43:57.120Z,0
2018-09-13T02:44:59.537Z,0
2018-09-13T02:45:58.232Z,0
2018-09-13T02:46:59.486Z,0
2018-09-13T02:47:58.626Z,0
2018-09-13T02:49:00.261Z,0
2018-09-13T02:50:00.279Z,0
2018-09-13T02:51:01.533Z,0
2018-09-13T02:52:00.950Z,0
2018-09-13T02:53:01.923Z,0
2018-09-13T02:54:01.621Z,0
2018-09-13T02:55:02.604Z,0
2018-09-13T02:56:03.020Z,0
2018-09-13T02:57:03.160Z,0
2018-09-13T02:58:03.300Z,0
2018-09-13T02:59:04.285Z,0
2018-09-13T03:00:04.421Z,0
2018-09-13T03:01:04.560Z,0
2018-09-13T03:02:05.251Z,0
2018-09-13T03:03:05.671Z,0
2018-09-13T03:04:06.080Z,0
2018-09-13T03:05:06.772Z,0
2018-09-13T03:06:07.189Z,0
2018-09-13T03:07:07.334Z,0
2018-09-13T03:08:07.888Z,0
2018-09-13T03:09:08.711Z,0
2018-09-13T03:10:09.682Z,0
2018-09-13T03:11:09.818Z,0
2018-09-13T03:12:10.239Z,0
2018-09-13T03:13:10.660Z,0
2018-09-13T03:14:11.077Z,0
2018-09-13T03:15:12.104Z,0
2018-09-13T03:16:12.074Z,0
2018-09-13T03:17:12.495Z,0
2018-09-13T03:18:12.631Z,0
2018-09-13T03:19:13.897Z,0
2018-09-13T03:20:14.312Z,0
2018-09-13T03:21:15.011Z,0
2018-09-13T03:22:15.427Z,0
2018-09-13T03:23:15.844Z,0
2018-09-13T03:24:16.550Z,0
2018-09-13T03:25:16.687Z,0
2018-09-13T03:26:17.400Z,0
2018-09-13T03:27:18.093Z,0
2018-09-13T03:28:18.792Z,0
2018-09-13T03:29:19.781Z,0
2018-09-13T03:30:20.753Z,0
2018-09-13T03:31:22.001Z,0
2018-09-13T03:32:22.985Z,0
2018-09-13T03:33:23.404Z,0
2018-09-13T03:34:23.543Z,0
2018-09-13T03:35:24.237Z,0
2018-09-13T03:36:24.653Z,0
2018-09-13T03:37:25.349Z,0
2018-09-13T03:38:25.766Z,0
2018-09-13T03:39:26.322Z,0
2018-09-13T03:40:26.462Z,0
2018-09-13T03:41:26.879Z,0
2018-09-13T03:42:27.296Z,0
2018-09-13T03:43:27.992Z,0
2018-09-13T03:44:28.134Z,0
2018-09-13T03:45:28.824Z,0
2018-09-13T03:46:29.241Z,0
2018-09-13T03:47:29.380Z,0
2018-09-13T03:48:30.631Z,0
2018-09-13T03:49:30.897Z,0
2018-09-13T03:50:32.151Z,0
2018-09-13T03:51:32.571Z,0
2018-09-13T03:52:33.272Z,0
2018-09-13T03:53:33.690Z,0
2018-09-13T03:54:34.672Z,0
2018-09-13T03:55:34.367Z,0
2018-09-13T03:56:35.056Z,0
2018-09-13T03:57:36.035Z,0
2018-09-13T03:58:36.178Z,0
2018-09-13T03:59:37.165Z,0
2018-09-13T04:00:37.881Z,0
2018-09-13T04:01:38.577Z,0
2018-09-13T04:02:39.288Z,0
2018-09-13T04:03:40.538Z,0
2018-09-13T04:04:40.678Z,0
2018-09-13T04:05:41.093Z,0
2018-09-13T04:06:42.068Z,0
2018-09-13T04:07:42.202Z,0
2018-09-13T04:08:42.914Z,0
2018-09-13T04:09:42.625Z,0
2018-09-13T04:10:42.764Z,0
2018-09-13T04:11:44.017Z,0
2018-09-13T04:12:43.154Z,0
2018-09-13T04:13:43.292Z,0
2018-09-13T04:14:43.711Z,0
2018-09-13T04:15:43.848Z,0
2018-09-13T04:16:44.269Z,0
2018-09-13T04:17:45.242Z,0
2018-09-13T04:18:45.361Z,0
2018-09-13T04:19:45.647Z,0
2018-09-13T04:20:46.346Z,0
2018-09-13T04:21:47.039Z,0
2018-09-13T04:22:48.951Z,0
2018-09-13T04:23:48.001Z,0
2018-09-13T04:24:48.980Z,0
2018-09-13T04:25:49.117Z,0
2018-09-13T04:26:50.091Z,0
2018-09-13T04:27:50.786Z,0
2018-09-13T04:28:51.479Z,0
2018-09-13T04:29:52.749Z,0
2018-09-13T04:30:52.882Z,0
2018-09-13T04:31:53.351Z,0
2018-09-13T04:32:54.106Z,0
2018-09-13T04:33:53.522Z,0
2018-09-13T04:34:53.659Z,0
2018-09-13T04:35:55.062Z,0
2018-09-13T04:36:55.135Z,0
2018-09-13T04:37:55.274Z,0
2018-09-13T04:38:55.417Z,0
2018-09-13T04:39:55.956Z,0
2018-09-13T04:40:56.650Z,0
2018-09-13T04:41:56.788Z,0
2018-09-13T04:42:57.204Z,0
2018-09-13T04:43:57.898Z,0
2018-09-13T04:44:58.328Z,0
2018-09-13T04:45:59.014Z,0
2018-09-13T04:46:59.709Z,0
2018-09-13T04:48:00.127Z,0
2018-09-13T04:49:00.635Z,0
2018-09-13T04:50:00.286Z,0
2018-09-13T04:51:00.702Z,0
2018-09-13T04:52:01.119Z,0
2018-09-13T04:53:01.533Z,0
2018-09-13T04:54:01.684Z,0
2018-09-13T04:55:02.095Z,5.63
2018-09-13T04:56:02.788Z,5.63
2018-09-13T04:57:02.929Z,5.63
2018-09-13T04:58:03.067Z,5.63
2018-09-13T04:59:03.482Z,5.63
2018-09-13T05:00:04.470Z,5.63
2018-09-13T05:01:04.887Z,5.63
2018-09-13T05:02:05.307Z,11.25
2018-09-13T05:03:06.006Z,11.25
2018-09-13T05:04:07.264Z,11.25
2018-09-13T05:05:07.960Z,11.25
2018-09-13T05:06:08.102Z,16.88
2018-09-13T05:07:08.240Z,16.88
2018-09-13T05:08:08.378Z,22.5
2018-09-13T05:09:08.520Z,22.5
2018-09-13T05:10:09.793Z,22.5
2018-09-13T05:11:10.764Z,28.13
2018-09-13T05:12:10.904Z,28.13
2018-09-13T05:13:11.043Z,28.13
2018-09-13T05:14:11.739Z,28.13
2018-09-13T05:15:12.436Z,28.13
2018-09-13T05:16:12.580Z,28.13
2018-09-13T05:17:13.280Z,28.13
2018-09-13T05:18:13.699Z,28.13
2018-09-13T05:19:14.114Z,33.75
2018-09-13T05:20:14.104Z,33.75
2018-09-13T05:21:15.080Z,33.75
2018-09-13T05:22:15.220Z,33.75
2018-09-13T05:23:15.913Z,39.38
2018-09-13T05:24:16.698Z,39.38
2018-09-13T05:25:16.457Z,39.38
2018-09-13T05:26:16.876Z,45
2018-09-13T05:27:17.016Z,45
2018-09-13T05:28:17.434Z,50.63
2018-09-13T05:29:17.578Z,50.63
2018-09-13T05:30:18.849Z,50.63
2018-09-13T05:31:18.990Z,50.63
2018-09-13T05:32:19.411Z,50.63
2018-09-13T05:33:20.126Z,50.63
2018-09-13T05:34:20.540Z,56.25
2018-09-13T05:35:20.959Z,56.25
2018-09-13T05:36:21.378Z,61.88
2018-09-13T05:37:22.074Z,67.5
2018-09-13T05:38:22.771Z,67.5
2018-09-13T05:39:23.755Z,73.13
2018-09-13T05:40:24.578Z,73.13
2018-09-13T05:41:25.273Z,78.75
2018-09-13T05:42:25.418Z,78.75
2018-09-13T05:43:25.835Z,78.75
2018-09-13T05:44:26.567Z,84.38
2018-09-13T05:45:26.706Z,90
2018-09-13T05:46:27.681Z,95.63
2018-09-13T05:47:28.378Z,95.63
2018-09-13T05:48:28.530Z,95.63
2018-09-13T05:49:28.948Z,95.63
2018-09-13T05:50:30.120Z,95.63
2018-09-13T05:51:30.946Z,95.63
2018-09-13T05:52:31.210Z,95.63
2018-09-13T05:53:31.629Z,101.25
2018-09-13T05:54:31.826Z,101.25
2018-09-13T05:55:32.487Z,101.25
2018-09-13T05:56:32.955Z,106.88
2018-09-13T05:57:33.586Z,106.88
2018-09-13T05:58:34.578Z,106.88
2018-09-13T05:59:34.705Z,95.63
2018-09-13T06:00:34.362Z,90
2018-09-13T06:01:34.646Z,95.63
2018-09-13T06:02:35.117Z,95.63
2018-09-13T06:03:35.575Z,112.5
2018-09-13T06:04:36.628Z,123.75
2018-09-13T06:05:36.908Z,135
2018-09-13T06:06:37.368Z,135
2018-09-13T06:07:37.137Z,157.5
2018-09-13T06:08:37.929Z,258.75
2018-09-13T06:09:39.419Z,292.5
2018-09-13T06:10:38.908Z,315
2018-09-13T06:11:40.643Z,309.38
2018-09-13T06:12:40.524Z,320.63
2018-09-13T06:13:41.964Z,348.75
2018-09-13T06:14:42.044Z,399.38
2018-09-13T06:15:41.702Z,461.25
2018-09-13T06:16:42.461Z,450
2018-09-13T06:17:43.888Z,416.25
2018-09-13T06:18:43.836Z,416.25
2018-09-13T06:19:44.526Z,393.75
2018-09-13T06:20:44.287Z,483.75
2018-09-13T06:21:45.064Z,466.88
2018-09-13T06:22:45.515Z,551.25
2018-09-13T06:23:46.075Z,534.38
2018-09-13T06:24:46.724Z,433.13
2018-09-13T06:25:47.154Z,376.88
2018-09-13T06:26:48.535Z,427.5
2018-09-13T06:27:48.035Z,601.88
2018-09-13T06:28:48.514Z,568.13
2018-09-13T06:29:48.708Z,371.25
2018-09-13T06:30:49.082Z,416.25
2018-09-13T06:31:49.645Z,180
2018-09-13T06:32:50.356Z,365.63
2018-09-13T06:33:50.946Z,331.88
2018-09-13T06:34:51.661Z,348.75
2018-09-13T06:35:52.090Z,450
2018-09-13T06:36:52.578Z,466.88
2018-09-13T06:37:52.759Z,331.88
2018-09-13T06:38:53.463Z,185.63
2018-09-13T06:39:53.893Z,163.13
2018-09-13T06:40:55.462Z,168.75
2018-09-13T06:41:56.167Z,151.88
2018-09-13T06:42:56.869Z,151.88
2018-09-13T06:43:57.016Z,151.88
2018-09-13T06:44:57.997Z,146.25
2018-09-13T06:45:58.438Z,146.25
2018-09-13T06:46:58.572Z,151.88
2018-09-13T06:47:59.281Z,146.25
2018-09-13T06:48:59.420Z,146.25
2018-09-13T06:50:00.123Z,146.25
2018-09-13T06:50:59.839Z,146.25
2018-09-13T06:52:00.265Z,140.63
2018-09-13T06:53:00.967Z,146.25
2018-09-13T06:54:01.765Z,146.25
2018-09-13T06:55:01.525Z,146.25
2018-09-13T06:56:02.226Z,146.25
2018-09-13T06:57:02.656Z,146.25
2018-09-13T06:58:02.802Z,151.88
2018-09-13T06:59:03.658Z,146.25
2018-09-13T07:00:04.084Z,146.25
2018-09-13T07:01:04.358Z,140.63
2018-09-13T07:02:04.503Z,135
2018-09-13T07:03:04.925Z,123.75
2018-09-13T07:04:05.626Z,118.13
2018-09-13T07:05:05.774Z,106.88
2018-09-13T07:06:05.924Z,101.25
2018-09-13T07:07:06.630Z,95.63
2018-09-13T07:08:07.052Z,90
2018-09-13T07:09:07.600Z,90
2018-09-13T07:10:08.083Z,90
2018-09-13T07:11:09.077Z,95.63
2018-09-13T07:12:09.648Z,95.63
2018-09-13T07:13:10.795Z,106.88
2018-09-13T07:14:10.342Z,106.88
2018-09-13T07:15:11.041Z,112.5
2018-09-13T07:16:11.187Z,112.5
2018-09-13T07:17:11.609Z,112.5
2018-09-13T07:18:12.339Z,112.5
2018-09-13T07:19:12.759Z,112.5
2018-09-13T07:20:13.459Z,112.5
2018-09-13T07:21:14.010Z,112.5
2018-09-13T07:22:14.433Z,112.5
2018-09-13T07:23:15.147Z,118.13
2018-09-13T07:24:15.556Z,118.13
2018-09-13T07:25:15.980Z,118.13
2018-09-13T07:26:16.401Z,118.13
2018-09-13T07:27:16.824Z,118.13
2018-09-13T07:28:16.975Z,118.13
2018-09-13T07:29:17.958Z,112.5
2018-09-13T07:30:18.108Z,112.5
2018-09-13T07:31:19.067Z,112.5
2018-09-13T07:32:19.490Z,112.5
2018-09-13T07:33:20.529Z,118.13
2018-09-13T07:34:20.902Z,118.13
2018-09-13T07:35:21.459Z,118.13
2018-09-13T07:36:23.997Z,118.13
2018-09-13T07:37:22.649Z,123.75
2018-09-13T07:38:23.686Z,129.38
2018-09-13T07:39:23.597Z,140.63
2018-09-13T07:40:23.385Z,146.25
2018-09-13T07:41:23.306Z,157.5
2018-09-13T07:42:25.006Z,163.13
2018-09-13T07:43:24.301Z,168.75
2018-09-13T07:44:24.295Z,180
2018-09-13T07:45:24.926Z,191.25
2018-09-13T07:46:25.870Z,202.5
2018-09-13T07:47:27.518Z,208.13
2018-09-13T07:48:27.287Z,208.13
2018-09-13T07:49:28.877Z,213.75
2018-09-13T07:50:28.091Z,219.38
2018-09-13T07:51:29.570Z,225
2018-09-13T07:52:29.871Z,236.25
2018-09-13T07:53:30.541Z,225
2018-09-13T07:54:30.975Z,225
2018-09-13T07:55:31.121Z,219.38
2018-09-13T07:56:32.575Z,219.38
2018-09-13T07:57:31.948Z,219.38
2018-09-13T07:58:32.647Z,213.75
2018-09-13T07:59:33.090Z,219.38
2018-09-13T08:00:33.510Z,219.38
2018-09-13T08:01:34.824Z,219.38
2018-09-13T08:02:35.060Z,230.63
2018-09-13T08:03:35.240Z,219.38
2018-09-13T08:04:35.897Z,208.13
2018-09-13T08:05:36.598Z,208.13
2018-09-13T08:06:37.211Z,208.13
2018-09-13T08:07:38.356Z,208.13
2018-09-13T08:08:37.738Z,202.5
2018-09-13T08:09:38.716Z,202.5
2018-09-13T08:10:38.425Z,208.13
2018-09-13T08:11:38.629Z,219.38
2018-09-13T08:12:39.116Z,213.75
2018-09-13T08:13:39.544Z,213.75
2018-09-13T08:14:40.242Z,219.38
2018-09-13T08:15:41.305Z,225
2018-09-13T08:16:41.008Z,236.25
2018-09-13T08:17:41.710Z,247.5
2018-09-13T08:18:42.135Z,264.38
2018-09-13T08:19:42.281Z,315
2018-09-13T08:20:43.025Z,315
2018-09-13T08:21:44.000Z,320.63
2018-09-13T08:22:43.374Z,326.25
2018-09-13T08:23:44.072Z,331.88
2018-09-13T08:24:44.497Z,348.75
2018-09-13T08:25:45.477Z,343.13
2018-09-13T08:26:44.904Z,320.63
2018-09-13T08:27:45.609Z,331.88
2018-09-13T08:28:46.309Z,337.5
2018-09-13T08:29:46.460Z,326.25
2018-09-13T08:30:47.160Z,320.63
2018-09-13T08:31:48.432Z,320.63
2018-09-13T08:32:48.577Z,320.63
2018-09-13T08:33:49.692Z,315
2018-09-13T08:34:50.194Z,309.38
2018-09-13T08:35:50.685Z,309.38
2018-09-13T08:36:51.813Z,309.38
2018-09-13T08:37:51.513Z,292.5
2018-09-13T08:38:51.660Z,281.25
2018-09-13T08:39:52.585Z,253.13
2018-09-13T08:40:52.625Z,236.25
2018-09-13T08:41:53.173Z,230.63
2018-09-13T08:42:53.325Z,219.38
2018-09-13T08:43:53.745Z,213.75
2018-09-13T08:44:53.894Z,213.75
2018-09-13T08:45:54.315Z,208.13
2018-09-13T08:46:54.463Z,202.5
2018-09-13T08:47:54.884Z,202.5
2018-09-13T08:48:55.307Z,202.5
2018-09-13T08:49:56.008Z,196.88
2018-09-13T08:50:56.990Z,196.88
2018-09-13T08:51:57.101Z,196.88
2018-09-13T08:52:57.804Z,202.5
2018-09-13T08:53:58.227Z,202.5
2018-09-13T08:54:59.282Z,202.5
2018-09-13T08:55:58.706Z,208.13
2018-09-13T08:56:58.850Z,208.13
2018-09-13T08:57:59.273Z,208.13
2018-09-13T08:58:59.418Z,213.75
2018-09-13T09:00:00.402Z,213.75
2018-09-13T09:01:00.821Z,213.75
2018-09-13T09:02:00.815Z,219.38
2018-09-13T09:03:00.962Z,213.75
2018-09-13T09:04:01.110Z,219.38
2018-09-13T09:05:01.533Z,230.63
2018-09-13T09:06:02.266Z,241.88
2018-09-13T09:07:02.694Z,247.5
2018-09-13T09:08:02.839Z,253.13
2018-09-13T09:09:03.268Z,258.75
2018-09-13T09:10:03.973Z,258.75
2018-09-13T09:11:04.120Z,258.75
2018-09-13T09:12:05.121Z,253.13
2018-09-13T09:13:05.546Z,253.13
2018-09-13T09:14:05.691Z,258.75
2018-09-13T09:15:05.837Z,264.38
2018-09-13T09:16:06.270Z,270
2018-09-13T09:17:06.688Z,286.88
2018-09-13T09:18:07.114Z,303.75
2018-09-13T09:19:07.262Z,315
2018-09-13T09:20:08.269Z,320.63
2018-09-13T09:21:07.693Z,337.5
2018-09-13T09:22:08.336Z,326.25
2018-09-13T09:23:08.646Z,337.5
2018-09-13T09:24:10.364Z,343.13
2018-09-13T09:25:09.448Z,337.5
2018-09-13T09:26:09.875Z,331.88
2018-09-13T09:27:10.025Z,337.5
2018-09-13T09:28:10.181Z,343.13
2018-09-13T09:29:10.988Z,354.38
2018-09-13T09:30:10.979Z,382.5
2018-09-13T09:31:11.408Z,371.25
2018-09-13T09:32:12.127Z,393.75
2018-09-13T09:33:12.555Z,393.75
2018-09-13T09:34:13.256Z,365.63
2018-09-13T09:35:13.710Z,360
2018-09-13T09:36:14.133Z,365.63
2018-09-13T09:37:14.286Z,354.38
2018-09-13T09:38:14.995Z,343.13
2018-09-13T09:39:16.009Z,326.25
2018-09-13T09:40:17.011Z,320.63
2018-09-13T09:41:17.776Z,320.63
2018-09-13T09:42:18.668Z,326.25
2018-09-13T09:43:17.853Z,399.38
2018-09-13T09:44:19.561Z,703.13
2018-09-13T09:45:19.212Z,810
2018-09-13T09:46:19.918Z,691.88
2018-09-13T09:47:20.376Z,399.38
2018-09-13T09:48:20.798Z,382.5
2018-09-13T09:49:21.508Z,421.88
2018-09-13T09:50:22.646Z,410.63
2018-09-13T09:51:22.039Z,360
2018-09-13T09:52:23.042Z,382.5
2018-09-13T09:53:22.403Z,376.88
2018-09-13T09:54:22.550Z,393.75
2018-09-13T09:55:22.696Z,393.75
2018-09-13T09:56:22.843Z,405
2018-09-13T09:57:22.993Z,455.63
2018-09-13T09:58:23.696Z,495
2018-09-13T09:59:24.122Z,556.88
2018-09-13T10:00:24.594Z,579.38
2018-09-13T10:01:25.298Z,585
2018-09-13T10:02:25.016Z,663.75
2018-09-13T10:03:25.699Z,1350
2018-09-13T10:04:27.120Z,2323.13
2018-09-13T10:05:26.242Z,1974.38
2018-09-13T10:06:26.666Z,1530
2018-09-13T10:07:27.093Z,1316.25
2018-09-13T10:08:27.242Z,1479.38
2018-09-13T10:09:28.384Z,2216.25
2018-09-13T10:10:28.944Z,1445.63
2018-09-13T10:11:31.131Z,1428.75
2018-09-13T10:12:28.611Z,866.25
2018-09-13T10:13:29.043Z,2340
2018-09-13T10:14:29.751Z,1833.75
2018-09-13T10:15:30.457Z,2441.25
2018-09-13T10:16:30.612Z,2283.75
2018-09-13T10:17:31.038Z,1743.75
2018-09-13T10:18:31.468Z,905.63
2018-09-13T10:19:31.898Z,945
2018-09-13T10:20:32.360Z,950.63
2018-09-13T10:21:33.405Z,753.75
2018-09-13T10:22:32.681Z,905.63
2018-09-13T10:23:33.196Z,894.38
2018-09-13T10:24:34.055Z,798.75
2018-09-13T10:25:34.499Z,838.13
2018-09-13T10:26:36.030Z,596.25
2018-09-13T10:27:35.620Z,500.63
2018-09-13T10:28:37.086Z,495
2018-09-13T10:29:37.008Z,461.25
2018-09-13T10:30:40.597Z,466.88
2018-09-13T10:31:38.011Z,450
2018-09-13T10:32:39.299Z,450
2018-09-13T10:33:44.459Z,461.25
2018-09-13T10:34:44.343Z,455.63
2018-09-13T10:35:45.003Z,466.88
2018-09-13T10:36:45.635Z,450
2018-09-13T10:37:45.812Z,455.63
2018-09-13T10:38:44.624Z,438.75
2018-09-13T10:39:46.656Z,433.13
2018-09-13T10:40:47.475Z,433.13
2018-09-13T10:41:46.546Z,466.88
2018-09-13T10:42:45.084Z,461.25
2018-09-13T10:43:45.512Z,472.5
2018-09-13T10:44:46.216Z,489.38
2018-09-13T10:45:47.215Z,528.75
2018-09-13T10:46:47.642Z,613.13
2018-09-13T10:47:57.849Z,1181.25
2018-09-13T10:48:49.101Z,1518.75
2018-09-13T10:49:49.545Z,2131.88
2018-09-13T10:50:49.697Z,2368.13
2018-09-13T10:51:50.401Z,2508.75
2018-09-13T10:52:51.503Z,2508.75
2018-09-13T10:53:53.373Z,2576.25
2018-09-13T10:54:51.846Z,2683.13
2018-09-13T10:55:54.967Z,1980
2018-09-13T10:56:54.207Z,2745
2018-09-13T10:57:53.858Z,2829.38
2018-09-13T10:58:53.152Z,1912.5
2018-09-13T10:59:53.716Z,2413.13
2018-09-13T11:00:55.699Z,2598.75
2018-09-13T11:01:55.922Z,2289.38
2018-09-13T11:02:56.201Z,2008.13
2018-09-13T11:03:58.348Z,1603.13
2018-09-13T11:04:57.674Z,2491.88
2018-09-13T11:05:59.779Z,2576.25
2018-09-13T11:06:57.942Z,1665
2018-09-13T11:07:58.655Z,1220.63
2018-09-13T11:08:59.164Z,1496.25
2018-09-13T11:09:59.631Z,1040.63
2018-09-13T11:11:01.279Z,2047.5
2018-09-13T11:12:00.339Z,1260
2018-09-13T11:13:02.174Z,2452.5
2018-09-13T11:14:02.884Z,2553.75
2018-09-13T11:15:03.317Z,1946.25
2018-09-13T11:16:04.309Z,1833.75
2018-09-13T11:17:04.470Z,2221.88
2018-09-13T11:18:05.472Z,2441.25
2018-09-13T11:19:05.888Z,2475
2018-09-13T11:20:06.568Z,1479.38
2018-09-13T11:21:07.009Z,2025
2018-09-13T11:22:07.268Z,2514.38
2018-09-13T11:23:07.714Z,2379.38
2018-09-13T11:24:08.428Z,2446.88
2018-09-13T11:25:09.193Z,2390.63
2018-09-13T11:26:08.874Z,2345.63
2018-09-13T11:27:09.502Z,2328.75
2018-09-13T11:28:10.223Z,2328.75
2018-09-13T11:29:10.660Z,2345.63
2018-09-13T11:30:11.420Z,2278.13
2018-09-13T11:31:11.648Z,2317.5
2018-09-13T11:32:12.578Z,2328.75
2018-09-13T11:33:13.073Z,2362.5
2018-09-13T11:34:13.916Z,2379.38
2018-09-13T11:35:14.912Z,2379.38
2018-09-13T11:36:15.614Z,2340
2018-09-13T11:37:17.190Z,2283.75
2018-09-13T11:38:16.781Z,2233.13
2018-09-13T11:39:17.389Z,2193.75
2018-09-13T11:40:19.240Z,2182.5
2018-09-13T11:41:18.572Z,2171.25
2018-09-13T11:42:18.793Z,2160
2018-09-13T11:43:19.382Z,2148.75
2018-09-13T11:44:20.198Z,2143.13
2018-09-13T11:45:20.914Z,2126.25
2018-09-13T11:46:21.349Z,2126.25
2018-09-13T11:47:21.920Z,2120.63
2018-09-13T11:48:23.470Z,2115
2018-09-13T11:49:23.121Z,2115
2018-09-13T11:50:23.753Z,2109.38
2018-09-13T11:51:25.826Z,2075.63
2018-09-13T11:52:24.609Z,2002.5
2018-09-13T11:53:24.738Z,1963.13
2018-09-13T11:54:25.192Z,1923.75
2018-09-13T11:55:25.955Z,1884.38
2018-09-13T11:56:27.307Z,1861.88
2018-09-13T11:57:26.965Z,1873.13
2018-09-13T11:58:28.358Z,1822.5
2018-09-13T11:59:27.990Z,1918.13
2018-09-13T12:00:28.148Z,2053.13
2018-09-13T12:01:28.611Z,2115
2018-09-13T12:02:29.860Z,2148.75
2018-09-13T12:03:30.147Z,2120.63
2018-09-13T12:04:30.306Z,2131.88
2018-09-13T12:05:31.014Z,2115
2018-09-13T12:06:31.212Z,1552.5
2018-09-13T12:07:31.403Z,2047.5
2018-09-13T12:08:32.177Z,2041.88
2018-09-13T12:09:33.044Z,2070
2018-09-13T12:10:33.169Z,2103.75
2018-09-13T12:11:33.879Z,2092.5
2018-09-13T12:12:34.339Z,2008.13
2018-09-13T12:13:34.346Z,1248.75
2018-09-13T12:14:35.050Z,1636.88
2018-09-13T12:15:35.201Z,967.5
2018-09-13T12:16:35.357Z,860.63
2018-09-13T12:17:35.503Z,1659.38
2018-09-13T12:18:35.974Z,1074.38
2018-09-13T12:19:36.682Z,1552.5
2018-09-13T12:20:36.835Z,2075.63
2018-09-13T12:21:37.340Z,1811.25
2018-09-13T12:22:38.886Z,1507.5
2018-09-13T12:23:39.964Z,967.5
2018-09-13T12:24:41.502Z,1518.75
2018-09-13T12:25:39.215Z,1850.63
2018-09-13T12:26:39.899Z,1996.88
2018-09-13T12:27:40.548Z,2019.38
2018-09-13T12:28:41.259Z,1968.75
2018-09-13T12:29:42.617Z,2036.25
2018-09-13T12:30:45.100Z,2086.88
2018-09-13T12:31:46.341Z,1417.5
2018-09-13T12:32:43.856Z,1771.88
2018-09-13T12:33:43.364Z,1935
2018-09-13T12:34:43.735Z,703.13
2018-09-13T12:35:43.888Z,810
2018-09-13T12:36:44.041Z,2019.38
2018-09-13T12:37:44.196Z,2025
2018-09-13T12:38:44.904Z,1653.75
2018-09-13T12:39:49.780Z,748.13
2018-09-13T12:40:45.487Z,545.63
2018-09-13T12:41:45.912Z,478.13
2018-09-13T12:42:46.114Z,523.13
2018-09-13T12:43:46.141Z,1783.13
2018-09-13T12:44:46.620Z,438.75
2018-09-13T12:45:47.325Z,388.13
2018-09-13T12:46:47.476Z,399.38
2018-09-13T12:47:47.628Z,630
2018-09-13T12:48:47.783Z,1260
2018-09-13T12:49:48.308Z,1946.25
2018-09-13T12:50:48.739Z,1895.63
2018-09-13T12:51:49.181Z,1884.38
2018-09-13T12:52:50.412Z,1906.88
2018-09-13T12:53:50.686Z,1895.63
2018-09-13T12:54:51.412Z,1923.75
2018-09-13T12:55:51.578Z,888.75
2018-09-13T12:56:52.218Z,1237.5
2018-09-13T12:57:52.324Z,1029.38
2018-09-13T12:58:52.470Z,601.88
2018-09-13T12:59:53.176Z,303.75
2018-09-13T13:00:53.884Z,298.13
2018-09-13T13:01:54.036Z,742.5
2018-09-13T13:02:54.463Z,433.13
2018-09-13T13:03:54.746Z,388.13
2018-09-13T13:04:55.170Z,371.25
2018-09-13T13:05:55.637Z,371.25
2018-09-13T13:06:55.787Z,405
2018-09-13T13:07:55.936Z,1591.88
2018-09-13T13:08:57.462Z,1760.63
2018-09-13T13:09:56.886Z,708.75
2018-09-13T13:10:57.322Z,410.63
2018-09-13T13:11:57.478Z,331.88
2018-09-13T13:12:57.901Z,309.38
2018-09-13T13:13:58.455Z,298.13
2018-09-13T13:15:02.800Z,478.13
2018-09-13T13:16:01.207Z,331.88
2018-09-13T13:16:59.867Z,326.25
2018-09-13T13:18:00.231Z,343.13
2018-09-13T13:19:00.666Z,382.5
2018-09-13T13:20:01.488Z,646.88
2018-09-13T13:21:01.696Z,506.25
2018-09-13T13:22:02.129Z,573.75
2018-09-13T13:23:02.272Z,534.38
2018-09-13T13:24:03.908Z,556.88
2018-09-13T13:25:03.661Z,444.38
2018-09-13T13:26:04.092Z,360
2018-09-13T13:27:04.255Z,354.38
2018-09-13T13:28:04.849Z,309.38